createdAt,value
2022-11-10T00:00:24.255Z,1025.3
2022-11-10T00:06:02.944Z,1025.3
2022-11-10T00:11:45.656Z,1025.3
2022-11-10T00:17:23.471Z,1025.3
2022-11-10T00:22:48.865Z,1025.4
2022-11-10T00:28:24.149Z,1025.5
2022-11-10T00:33:39.737Z,1025.5
2022-11-10T00:44:55.757Z,1025.5
2022-11-10T00:50:28.685Z,1025.6
2022-11-10T00:56:02.836Z,1025.8
2022-11-10T01:01:24.144Z,1025.8
2022-11-10T01:07:14.314Z,1025.9
2022-11-10T01:12:39.670Z,1025.9
2022-11-10T01:18:05.404Z,1026
2022-11-10T01:23:31.688Z,1026.1
2022-11-10T01:29:19.725Z,1026.1
2022-11-10T01:34:43.628Z,1026.1
2022-11-10T01:40:33.554Z,1026.2
2022-11-10T01:46:04.493Z,1026.2
2022-11-10T01:51:37.143Z,1026.3
2022-11-10T01:56:49.391Z,1026.2
2022-11-10T02:02:33.673Z,1026.3
2022-11-10T02:07:54.048Z,1026.1
2022-11-10T02:13:25.045Z,1026.2
2022-11-10T02:24:37.218Z,1026.3
2022-11-10T02:30:30.373Z,1026.4
2022-11-10T02:35:45.702Z,1026.5
2022-11-10T02:41:33.012Z,1026.5
2022-11-10T02:47:04.188Z,1026.6
2022-11-10T02:52:23.137Z,1026.6
2022-11-10T02:57:55.400Z,1026.7
2022-11-10T03:03:24.609Z,1026.7
2022-11-10T03:09:15.898Z,1026.9
2022-11-10T03:14:24.600Z,1026.9
2022-11-10T03:20:22.166Z,1027
2022-11-10T03:25:34.171Z,1027.1
2022-11-10T03:31:03.398Z,1027.2
2022-11-10T03:37:01.095Z,1027.3
2022-11-10T03:42:19.686Z,1027.3
2022-11-10T03:47:53.896Z,1027.3
2022-11-10T03:53:35.208Z,1027.4
2022-11-10T03:58:52.132Z,1027.5
2022-11-10T04:04:34.927Z,1027.6
2022-11-10T04:10:15.299Z,1027.7
2022-11-10T04:15:42.411Z,1027.8
2022-11-10T04:21:01.222Z,1027.9
2022-11-10T04:26:33.458Z,1027.9
2022-11-10T04:32:21.821Z,1027.9
2022-11-10T04:37:41.503Z,1028
2022-11-10T04:43:30.760Z,1028
2022-11-10T04:48:49.698Z,1028.3
2022-11-10T04:54:32.025Z,1028.3
2022-11-10T04:59:45.862Z,1028.3
2022-11-10T05:05:38.989Z,1028.3
2022-11-10T05:11:00.387Z,1028.4
2022-11-10T05:16:37.245Z,1028.6
2022-11-10T05:22:14.249Z,1028.5
2022-11-10T05:27:58.174Z,1028.6
2022-11-10T05:33:08.941Z,1028.7
2022-11-10T05:38:54.664Z,1028.7
2022-11-10T05:44:28.239Z,1028.6
2022-11-10T05:49:58.992Z,1029
2022-11-10T05:55:24.565Z,1029
2022-11-10T06:01:11.906Z,1029.1
2022-11-10T06:06:33.094Z,1029.2
2022-11-10T06:12:13.695Z,1029.4
2022-11-10T06:17:23.862Z,1029.5
2022-11-10T06:23:09.551Z,1029.5
2022-11-10T06:28:46.519Z,1029.6
2022-11-10T06:34:12.803Z,1029.6
2022-11-10T06:39:59.357Z,1029.8
2022-11-10T06:45:15.258Z,1029.8
2022-11-10T06:51:02.087Z,1030
2022-11-10T06:56:14.939Z,1030.2
2022-11-10T07:01:52.452Z,1030.3
2022-11-10T07:07:30.575Z,1030.2
2022-11-10T07:12:59.444Z,1030.1
2022-11-10T07:18:25.199Z,1030.2
2022-11-10T07:23:54.789Z,1030.4
2022-11-10T07:29:41.367Z,1030.3
2022-11-10T07:35:02.344Z,1030.5
2022-11-10T07:40:50.322Z,1030.6
2022-11-10T07:46:15.444Z,1030.7
2022-11-10T07:51:59.136Z,1030.7
2022-11-10T07:57:17.343Z,1030.8
2022-11-10T08:03:02.726Z,1030.8
2022-11-10T08:08:23.784Z,1030.8
2022-11-10T08:14:14.339Z,1030.9
2022-11-10T08:19:40.394Z,1030.9
2022-11-10T08:24:58.749Z,1030.9
2022-11-10T08:30:44.993Z,1030.9
2022-11-10T08:36:14.149Z,1031
2022-11-10T08:41:47.962Z,1031.1
2022-11-10T08:47:15.374Z,1031.1
2022-11-10T08:53:04.684Z,1031.3
2022-11-10T08:58:15.221Z,1031.3
2022-11-10T09:03:48.593Z,1031.3
2022-11-10T09:10:01.446Z,1031.4
2022-11-10T09:15:11.021Z,1031.3
2022-11-10T09:20:43.689Z,1031.3
2022-11-10T09:26:09.807Z,1031.2
2022-11-10T09:31:54.034Z,1031.3
2022-11-10T09:37:09.633Z,1031.3
2022-11-10T09:42:46.413Z,1031.2
2022-11-10T09:48:28.625Z,1031.4
2022-11-10T09:54:10.668Z,1031.4
2022-11-10T09:59:44.390Z,1031.5
2022-11-10T10:05:21.326Z,1031.4
2022-11-10T10:10:37.343Z,1031.4
2022-11-10T10:16:27.330Z,1031.5
2022-11-10T10:21:54.682Z,1031.4
2022-11-10T10:27:28.673Z,1031.3
2022-11-10T10:33:03.517Z,1031.2
2022-11-10T10:38:36.938Z,1031.3
2022-11-10T10:44:13.491Z,1031.3
2022-11-10T10:49:45.807Z,1031.4
2022-11-10T10:55:07.708Z,1031.2
2022-11-10T11:00:56.133Z,1031.1
2022-11-10T11:06:21.052Z,1031.2
2022-11-10T11:11:55.708Z,1031.3
2022-11-10T11:17:29.990Z,1031.2
2022-11-10T11:23:00.491Z,1031.1
2022-11-10T11:28:33.684Z,1030.9
2022-11-10T11:33:51.887Z,1031
2022-11-10T11:39:29.493Z,1030.8
2022-11-10T11:45:00.515Z,1030.3
2022-11-10T11:51:00.757Z,1030.1
2022-11-10T11:56:17.172Z,1030
2022-11-10T12:01:57.149Z,1030
2022-11-10T12:07:15.249Z,1029.9
2022-11-10T12:13:09.046Z,1029.9
2022-11-10T12:18:42.653Z,1029.9
2022-11-10T12:24:11.576Z,1030
2022-11-10T12:29:51.631Z,1030
2022-11-10T12:35:10.108Z,1030
2022-11-10T12:41:05.508Z,1029.9
2022-11-10T12:46:27.676Z,1029.9
2022-11-10T12:51:48.217Z,1029.8
2022-11-10T12:57:22.209Z,1029.8
2022-11-10T13:03:18.193Z,1029.8
2022-11-10T13:08:37.958Z,1029.7
2022-11-10T13:14:16.085Z,1029.7
2022-11-10T13:19:48.958Z,1029.8
2022-11-10T13:25:21.013Z,1029.8
2022-11-10T13:31:06.667Z,1029.8
2022-11-10T13:36:37.230Z,1029.8
2022-11-10T13:42:19.104Z,1029.8
2022-11-10T13:47:55.694Z,1029.8
2022-11-10T13:53:09.684Z,1030
2022-11-10T13:58:52.585Z,1029.8
2022-11-10T14:04:17.637Z,1029.8
2022-11-10T14:10:08.829Z,1029.8
2022-11-10T14:15:50.620Z,1029.8
2022-11-10T14:21:03.183Z,1029.8
2022-11-10T14:26:52.666Z,1030
2022-11-10T14:32:24.597Z,1030.1
2022-11-10T14:37:51.740Z,1030.2
2022-11-10T14:43:33.259Z,1030.3
2022-11-10T14:49:08.125Z,1030.5
2022-11-10T14:54:25.133Z,1030.4
2022-11-10T15:00:15.573Z,1030.5
2022-11-10T15:05:35.711Z,1030.6
2022-11-10T15:11:30.606Z,1030.7
2022-11-10T15:16:53.206Z,1030.8
2022-11-10T15:22:36.780Z,1030.8
2022-11-10T15:27:51.068Z,1030.9
2022-11-10T15:33:33.759Z,1031
2022-11-10T15:39:20.983Z,1031.1
2022-11-10T15:44:38.096Z,1031.2
2022-11-10T15:50:24.727Z,1031.3
2022-11-10T15:55:48.963Z,1031.3
2022-11-10T16:01:24.711Z,1031.4
2022-11-10T16:06:43.721Z,1031.6
2022-11-10T16:12:25.058Z,1031.6
2022-11-10T16:18:07.399Z,1031.7
2022-11-10T16:23:40.911Z,1031.7
2022-11-10T16:29:15.996Z,1031.7
2022-11-10T16:34:30.239Z,1031.8
2022-11-10T16:40:15.021Z,1031.8
2022-11-10T16:45:55.228Z,1032
2022-11-10T16:51:04.411Z,1032.1
2022-11-10T16:56:56.136Z,1032.2
2022-11-10T17:02:31.900Z,1032.4
2022-11-10T17:07:46.834Z,1032.4
2022-11-10T17:13:31.488Z,1032.4
2022-11-10T17:19:00.008Z,1032.5
2022-11-10T17:24:48.160Z,1032.5
2022-11-10T17:30:10.442Z,1032.6
2022-11-10T17:35:46.882Z,1033
2022-11-10T17:41:15.907Z,1033.2
2022-11-10T17:46:56.182Z,1033.2
2022-11-10T17:52:07.276Z,1033.2
2022-11-10T17:57:54.143Z,1033.2
2022-11-10T18:03:27.140Z,1033.2
2022-11-10T18:08:42.201Z,1033.2
2022-11-10T18:14:15.545Z,1033.3
2022-11-10T18:20:05.188Z,1033.5
2022-11-10T18:25:22.301Z,1033.6
2022-11-10T18:30:53.400Z,1033.6
2022-11-10T18:36:50.408Z,1033.6
2022-11-10T18:42:10.359Z,1033.5
2022-11-10T18:47:52.967Z,1033.7
2022-11-10T18:53:26.591Z,1033.8
2022-11-10T18:59:01.159Z,1033.8
2022-11-10T19:04:35.350Z,1033.8
2022-11-10T19:09:58.324Z,1033.9
2022-11-10T19:15:25.248Z,1033.9
2022-11-10T19:21:03.222Z,1033.9
2022-11-10T19:26:22.940Z,1033.8
2022-11-10T19:32:03.760Z,1034
2022-11-10T19:37:42.194Z,1034.1
2022-11-10T19:43:21.187Z,1034.1
2022-11-10T19:48:32.814Z,1034.2
2022-11-10T19:54:27.514Z,1034.3
2022-11-10T19:59:36.242Z,1034.4
2022-11-10T20:05:24.746Z,1034.5
2022-11-10T20:10:57.841Z,1034.5
2022-11-10T20:16:12.480Z,1034.6
2022-11-10T20:21:46.655Z,1034.5
2022-11-10T20:27:41.431Z,1034.6
2022-11-10T20:33:03.836Z,1034.7
2022-11-10T20:38:25.751Z,1034.8
2022-11-10T20:43:58.907Z,1034.9
2022-11-10T20:49:52.998Z,1034.9
2022-11-10T20:55:07.968Z,1035
2022-11-10T21:00:42.469Z,1035.1
2022-11-10T21:06:25.038Z,1035
2022-11-10T21:11:41.931Z,1035.2
2022-11-10T21:17:24.794Z,1035.5
2022-11-10T21:23:05.252Z,1035.6
2022-11-10T21:28:20.633Z,1035.6
2022-11-10T21:33:44.799Z,1035.7
2022-11-10T21:39:37.194Z,1035.5
2022-11-10T21:45:08.809Z,1035.3
2022-11-10T21:50:22.933Z,1035
2022-11-10T21:56:21.121Z,1035
2022-11-10T22:01:37.898Z,1035
2022-11-10T22:07:25.031Z,1035
2022-11-10T22:12:54.447Z,1035.1
2022-11-10T22:18:09.195Z,1035.2
2022-11-10T22:24:05.030Z,1035.3
2022-11-10T22:29:19.027Z,1035.2
2022-11-10T22:34:59.206Z,1035
2022-11-10T22:40:33.067Z,1034.9
2022-11-10T22:46:11.097Z,1034.9
2022-11-10T22:51:37.489Z,1035
2022-11-10T22:57:02.852Z,1035.2
2022-11-10T23:02:48.267Z,1035.3
2022-11-10T23:08:14.604Z,1035.4
2022-11-10T23:13:53.294Z,1035.5
2022-11-10T23:19:25.499Z,1035.7
2022-11-10T23:24:38.940Z,1035.7
2022-11-10T23:30:27.353Z,1035.8
2022-11-10T23:35:42.100Z,1035.8
2022-11-10T23:41:38.652Z,1035.7
2022-11-10T23:46:52.119Z,1035.5
2022-11-10T23:52:16.556Z,1035.3
2022-11-10T23:58:10.533Z,1035.4
